Time;durP1;ratioP1;P1;durP2;ratioP2;P2;SDS_P1;SDS_P2;PMS_P1;PMS_P2;Temp;Humidity;BMP_temperature;BMP_pressure;BME280_temperature;BME280_humidity;BME280_pressure;Samples;Min_cycle;Max_cycle;Signal;HPM_P1;HPM_P2
2020/12/07 00:01:45;;;;;;;69.63;46.67;;;5.40;95.30;;;;;;5095922;28;20204;-71
2020/12/07 00:04:11;;;;;;;67.05;47.60;;;5.40;95.20;;;;;;5093737;28;20649;-71
2020/12/07 00:06:37;;;;;;;87.97;46.63;;;5.40;96.00;;;;;;5095383;28;20204;-71
2020/12/07 00:09:03;;;;;;;78.77;50.70;;;5.40;96.30;;;;;;5095464;28;20403;-70
2020/12/07 00:11:28;;;;;;;82.50;48.10;;;5.40;96.30;;;;;;5095017;28;20176;-71
2020/12/07 00:13:54;;;;;;;96.07;55.50;;;5.40;96.60;;;;;;5095401;28;20399;-70
2020/12/07 00:16:19;;;;;;;67.20;46.70;;;5.40;95.80;;;;;;5095636;28;20216;-71
2020/12/07 00:18:45;;;;;;;82.60;50.70;;;5.40;96.10;;;;;;5095057;28;20171;-71
2020/12/07 00:21:10;;;;;;;92.63;48.50;;;5.40;95.40;;;;;;5095187;28;20251;-71
2020/12/07 00:23:36;;;;;;;80.13;45.57;;;5.40;95.30;;;;;;5095186;28;20176;-71
2020/12/07 00:26:02;;;;;;;86.90;52.67;;;5.40;95.20;;;;;;5094517;28;20561;-71
2020/12/07 00:28:28;;;;;;;95.68;50.97;;;5.40;95.50;;;;;;5095459;28;20615;-71
2020/12/07 00:30:53;;;;;;;82.00;45.87;;;5.40;95.20;;;;;;5094624;28;20222;-71
2020/12/07 00:33:19;;;;;;;86.13;51.60;;;5.40;95.40;;;;;;5094741;28;20223;-71
2020/12/07 00:35:44;;;;;;;78.20;44.27;;;5.40;95.50;;;;;;5094392;28;20241;-71
2020/12/07 00:38:10;;;;;;;97.90;52.37;;;5.40;95.30;;;;;;5094920;28;20176;-71
2020/12/07 00:40:35;;;;;;;82.80;47.17;;;5.50;98.20;;;;;;5094919;28;20612;-71
2020/12/07 00:43:01;;;;;;;77.70;49.50;;;5.50;95.00;;;;;;5095117;28;20165;-71
2020/12/07 00:45:26;;;;;;;91.73;52.07;;;5.50;94.50;;;;;;5094421;28;20187;-71
2020/12/07 00:47:52;;;;;;;78.33;45.23;;;5.50;93.40;;;;;;5094524;28;20157;-71
2020/12/07 00:50:18;;;;;;;94.10;54.57;;;5.50;92.70;;;;;;5094203;28;20169;-71
2020/12/07 00:52:44;;;;;;;79.70;50.75;;;5.40;92.50;;;;;;5094231;28;20173;-71
2020/12/07 00:55:09;;;;;;;77.83;47.77;;;5.40;92.90;;;;;;5094039;28;20199;-71
2020/12/07 00:57:35;;;;;;;82.20;47.47;;;5.50;93.00;;;;;;5094596;28;20638;-71
2020/12/07 01:00:00;;;;;;;91.27;53.83;;;5.50;92.80;;;;;;5094764;28;20536;-71
2020/12/07 01:02:26;;;;;;;85.80;49.83;;;5.50;92.30;;;;;;5094240;28;20184;-71
2020/12/07 01:04:52;;;;;;;100.40;58.50;;;5.50;92.00;;;;;;5093968;28;20181;-71
2020/12/07 01:07:17;;;;;;;105.83;49.20;;;5.50;91.80;;;;;;5094438;28;20645;-71
2020/12/07 01:09:43;;;;;;;89.90;45.50;;;5.60;91.50;;;;;;5093971;28;20172;-71
2020/12/07 01:12:08;;;;;;;85.33;45.03;;;5.50;91.50;;;;;;5094572;28;20199;-71
2020/12/07 01:14:34;;;;;;;94.13;48.47;;;5.50;91.10;;;;;;5093670;28;20169;-71
2020/12/07 01:16:59;;;;;;;86.57;44.47;;;5.50;91.10;;;;;;5094049;28;20183;-71
2020/12/07 01:19:26;;;;;;;79.37;42.17;;;5.60;91.40;;;;;;5094007;28;20733;-71
2020/12/07 01:21:51;;;;;;;84.13;47.03;;;5.60;91.30;;;;;;5094326;28;20509;-71
2020/12/07 01:24:17;;;;;;;99.27;48.47;;;5.60;91.20;;;;;;5093968;28;20169;-71
2020/12/07 01:26:43;;;;;;;81.43;44.40;;;5.60;90.80;;;;;;5094221;28;20185;-71
2020/12/07 01:29:09;;;;;;;88.97;49.80;;;5.60;89.10;;;;;;5094455;28;20199;-71
2020/12/07 01:31:34;;;;;;;87.73;49.67;;;5.60;88.60;;;;;;5093981;28;20399;-71
2020/12/07 01:34:00;;;;;;;74.10;47.13;;;5.60;88.10;;;;;;5093641;28;20657;-71
2020/12/07 01:36:26;;;;;;;88.07;45.95;;;5.70;86.60;;;;;;5094027;28;20580;-71
2020/12/07 01:38:52;;;;;;;86.70;46.17;;;5.60;86.40;;;;;;5094103;28;20258;-71
2020/12/07 01:41:18;;;;;;;86.90;48.63;;;5.70;86.80;;;;;;5093598;28;20208;-71
2020/12/07 01:43:44;;;;;;;78.10;54.72;;;5.70;85.80;;;;;;5094243;28;20547;-71
2020/12/07 01:46:11;;;;;;;89.83;52.90;;;5.70;84.90;;;;;;5093488;28;20233;-71
2020/12/07 01:48:37;;;;;;;79.47;51.63;;;5.70;84.40;;;;;;5093788;28;20179;-71
2020/12/07 01:51:03;;;;;;;89.77;53.03;;;5.70;82.40;;;;;;5093999;28;20172;-71
2020/12/07 01:53:29;;;;;;;79.13;49.10;;;5.70;82.80;;;;;;5093731;28;20498;-71
2020/12/07 01:55:55;;;;;;;86.00;47.67;;;5.70;83.30;;;;;;5093976;28;20471;-71
2020/12/07 01:58:20;;;;;;;90.00;48.57;;;5.70;83.70;;;;;;5094179;28;20812;-71
2020/12/07 02:00:46;;;;;;;80.43;50.03;;;5.60;82.80;;;;;;5093688;28;20237;-71
2020/12/07 02:03:12;;;;;;;83.37;50.63;;;5.60;82.50;;;;;;5096094;28;20903;-71
2020/12/07 02:05:38;;;;;;;91.47;52.33;;;5.60;84.00;;;;;;5097256;28;20180;-71
2020/12/07 02:08:18;;;;;;;110.15;57.80;;;5.50;86.70;;;;;;5098084;28;20164;-71
2020/12/07 02:10:45;;;;;;;106.35;53.78;;;5.40;90.10;;;;;;5098025;28;20500;-71
2020/12/07 02:13:11;;;;;;;97.40;56.72;;;5.40;91.30;;;;;;5097450;28;20565;-71
2020/12/07 02:15:40;;;;;;;109.32;58.35;;;5.40;92.20;;;;;;5097485;28;20612;-71
2020/12/07 02:18:07;;;;;;;92.65;53.50;;;5.40;92.80;;;;;;5097396;28;20176;-71
2020/12/07 02:20:33;;;;;;;92.70;56.20;;;5.40;93.10;;;;;;5097236;28;20635;-71
2020/12/07 02:22:58;;;;;;;96.22;56.42;;;5.40;93.10;;;;;;5097702;28;20169;-71
2020/12/07 02:25:24;;;;;;;90.70;49.30;;;5.50;96.10;;;;;;5097185;28;20586;-71
2020/12/07 02:27:51;;;;;;;94.40;55.53;;;5.50;91.40;;;;;;5097157;28;20713;-71
2020/12/07 02:30:18;;;;;;;101.97;54.10;;;5.50;90.60;;;;;;5097247;28;20176;-71
2020/12/07 02:32:45;;;;;;;86.95;55.20;;;5.60;88.50;;;;;;5097368;28;20177;-71
2020/12/07 02:35:12;;;;;;;93.50;57.78;;;5.60;87.10;;;;;;5096693;28;20291;-71
2020/12/07 02:37:38;;;;;;;95.15;51.22;;;5.60;86.70;;;;;;5097526;28;20183;-71
2020/12/07 02:40:07;;;;;;;100.32;60.65;;;5.60;87.10;;;;;;5097425;28;20279;-71
2020/12/07 02:42:34;;;;;;;97.07;52.10;;;5.60;86.00;;;;;;5096777;28;20176;-71
2020/12/07 02:45:11;;;;;;;94.82;51.25;;;5.60;86.60;;;;;;5096470;28;20246;-71
2020/12/07 02:47:37;;;;;;;100.47;51.08;;;5.60;87.20;;;;;;5097344;28;20156;-71
2020/12/07 02:50:05;;;;;;;94.45;55.28;;;5.60;86.50;;;;;;5097242;28;20173;-71
2020/12/07 02:52:31;;;;;;;98.25;53.90;;;5.60;87.00;;;;;;5096748;28;20175;-71
2020/12/07 02:55:11;;;;;;;93.87;55.07;;;5.50;86.40;;;;;;5096506;28;20592;-71
2020/12/07 02:57:38;;;;;;;96.45;54.22;;;5.60;87.20;;;;;;5096487;28;20513;-71
2020/12/07 03:00:06;;;;;;;91.40;56.67;;;5.60;87.60;;;;;;5096717;28;20192;-71
2020/12/07 03:02:32;;;;;;;118.28;54.42;;;5.60;86.80;;;;;;5097039;28;20214;-71
2020/12/07 03:04:57;;;;;;;87.50;57.50;;;5.60;86.10;;;;;;5096578;28;20184;-71
2020/12/07 03:07:23;;;;;;;92.97;50.50;;;5.60;85.90;;;;;;5096387;28;20751;-71
2020/12/07 03:09:48;;;;;;;93.13;52.83;;;5.60;86.10;;;;;;5096697;28;20605;-71
2020/12/07 03:12:14;;;;;;;94.73;54.50;;;5.60;86.10;;;;;;5096701;28;20176;-71
2020/12/07 03:14:40;;;;;;;97.67;60.13;;;5.60;85.40;;;;;;5095202;28;20252;-71
2020/12/07 03:17:05;;;;;;;109.80;51.67;;;5.60;84.00;;;;;;5096910;28;20175;-71
2020/12/07 03:19:31;;;;;;;90.50;54.47;;;5.60;83.10;;;;;;5096744;28;20665;-71
2020/12/07 03:21:56;;;;;;;93.43;53.00;;;5.60;83.00;;;;;;5096386;28;20497;-71
2020/12/07 03:24:22;;;;;;;82.87;48.70;;;5.60;82.10;;;;;;5096073;28;20172;-71
2020/12/07 03:26:48;;;;;;;89.10;59.43;;;5.60;81.60;;;;;;5096283;28;20575;-71
2020/12/07 03:29:13;;;;;;;89.43;51.77;;;5.60;81.80;;;;;;5096409;28;20183;-71
2020/12/07 03:31:39;;;;;;;100.80;58.47;;;5.60;81.60;;;;;;5096481;28;20161;-71
2020/12/07 03:34:07;;;;;;;95.53;57.47;;;5.60;81.60;;;;;;5095394;28;20184;-71
2020/12/07 03:36:33;;;;;;;96.95;56.63;;;5.60;82.40;;;;;;5095820;28;20196;-71
2020/12/07 03:38:59;;;;;;;93.32;53.70;;;5.60;82.90;;;;;;5095939;28;20173;-71
2020/12/07 03:41:25;;;;;;;86.38;50.33;;;5.60;83.00;;;;;;5095947;28;20208;-71
2020/12/07 03:43:51;;;;;;;84.70;46.37;;;5.50;83.30;;;;;;5096252;28;20256;-71
2020/12/07 03:46:17;;;;;;;86.27;46.27;;;5.60;83.90;;;;;;5095327;28;20291;-71
2020/12/07 03:48:42;;;;;;;84.10;47.07;;;5.60;85.00;;;;;;5096186;28;20177;-71
2020/12/07 03:51:08;;;;;;;85.43;48.87;;;5.60;85.30;;;;;;5095543;28;20399;-71
2020/12/07 03:53:36;;;;;;;94.82;49.28;;;5.60;85.70;;;;;;5095687;28;20177;-71
2020/12/07 03:56:04;;;;;;;93.00;45.63;;;5.50;85.20;;;;;;5095615;28;20685;-71
2020/12/07 03:58:29;;;;;;;86.78;45.05;;;5.60;85.50;;;;;;5095859;28;20516;-71
2020/12/07 04:00:55;;;;;;;97.87;51.57;;;5.60;85.00;;;;;;5095813;28;20196;-71
2020/12/07 04:03:22;;;;;;;91.57;45.47;;;5.60;85.90;;;;;;5095899;28;20537;-71
2020/12/07 04:05:55;;;;;;;87.53;45.05;;;5.60;83.90;;;;;;5095124;28;20192;-71
2020/12/07 04:08:20;;;;;;;93.55;46.13;;;5.50;82.70;;;;;;5095622;28;20539;-71
2020/12/07 04:10:46;;;;;;;80.17;51.13;;;5.50;83.00;;;;;;5095450;28;20230;-71
2020/12/07 04:13:12;;;;;;;105.67;48.30;;;5.50;83.40;;;;;;5095555;28;20251;-71
2020/12/07 04:15:37;;;;;;;73.33;45.20;;;5.50;83.80;;;;;;5094964;28;20180;-71
2020/12/07 04:18:03;;;;;;;82.67;44.57;;;5.50;84.60;;;;;;5094953;28;20409;-71
2020/12/07 04:20:28;;;;;;;87.97;46.10;;;5.50;84.60;;;;;;5095431;28;20208;-71
2020/12/07 04:22:54;;;;;;;90.63;50.63;;;5.50;86.60;;;;;;5095120;28;20222;-71
2020/12/07 04:25:20;;;;;;;87.57;45.90;;;5.50;85.90;;;;;;5094476;28;20283;-71
2020/12/07 04:27:45;;;;;;;93.10;50.67;;;5.50;86.30;;;;;;5095345;28;20209;-71
2020/12/07 04:30:11;;;;;;;86.73;47.47;;;5.40;85.70;;;;;;5094821;28;20183;-71
2020/12/07 04:32:36;;;;;;;72.03;43.30;;;5.50;86.20;;;;;;5095298;28;20202;-71
2020/12/07 04:35:03;;;;;;;96.23;46.60;;;5.50;91.60;;;;;;5094340;28;20208;-71
2020/12/07 04:37:29;;;;;;;83.50;46.55;;;5.40;85.50;;;;;;5094898;28;20200;-71
2020/12/07 04:39:54;;;;;;;72.50;45.83;;;5.40;86.60;;;;;;5094857;28;20284;-71
2020/12/07 04:42:20;;;;;;;77.97;54.37;;;5.40;86.80;;;;;;5095010;28;20173;-71
2020/12/07 04:44:46;;;;;;;78.33;49.30;;;5.40;87.50;;;;;;5094617;28;20177;-71
2020/12/07 04:47:18;;;;;;;85.35;47.65;;;5.40;88.10;;;;;;5094405;28;20395;-71
2020/12/07 04:49:45;;;;;;;96.18;51.90;;;5.40;86.70;;;;;;5094845;28;20176;-71
2020/12/07 04:52:10;;;;;;;79.95;50.83;;;5.30;86.70;;;;;;5094652;28;20615;-71
2020/12/07 04:54:38;;;;;;;90.10;45.27;;;5.40;86.80;;;;;;5094290;28;20415;-72
2020/12/07 04:57:04;;;;;;;81.75;42.72;;;5.40;88.20;;;;;;5094892;28;20511;-71
2020/12/07 04:59:32;;;;;;;89.93;46.17;;;5.40;87.50;;;;;;5094568;28;20196;-71
2020/12/07 05:01:57;;;;;;;82.30;45.15;;;5.40;87.20;;;;;;5094051;28;20171;-71
2020/12/07 05:04:23;;;;;;;71.47;41.97;;;5.40;86.10;;;;;;5094190;28;20172;-71
2020/12/07 05:07:07;;;;;;;75.90;42.03;;;5.40;85.40;;;;;;5094418;28;20271;-71
2020/12/07 05:09:35;;;;;;;83.70;47.65;;;5.50;82.40;;;;;;5094351;28;20630;-71
2020/12/07 05:12:02;;;;;;;78.05;46.80;;;5.50;81.00;;;;;;5094676;28;20179;-71
2020/12/07 05:14:30;;;;;;;83.78;44.50;;;5.40;80.30;;;;;;5093875;28;20511;-71
2020/12/07 05:16:55;;;;;;;83.65;46.40;;;5.30;81.80;;;;;;5094238;28;20279;-71
2020/12/07 05:19:22;;;;;;;74.27;47.33;;;5.30;81.80;;;;;;5094196;28;20670;-71
2020/12/07 05:21:47;;;;;;;70.53;44.25;;;5.30;82.50;;;;;;5094292;28;20172;-71
2020/12/07 05:24:14;;;;;;;87.10;46.97;;;5.40;81.60;;;;;;5094252;28;20169;-71
2020/12/07 05:26:41;;;;;;;79.10;46.90;;;5.40;80.60;;;;;;5094368;28;20421;-71
2020/12/07 05:29:10;;;;;;;65.28;45.75;;;5.30;79.10;;;;;;5093831;28;20201;-71
2020/12/07 05:31:36;;;;;;;82.38;51.88;;;5.20;79.60;;;;;;5094190;28;20160;-71
2020/12/07 05:34:04;;;;;;;92.03;48.10;;;5.20;81.40;;;;;;5093660;28;20669;-71
2020/12/07 05:36:30;;;;;;;83.60;47.53;;;5.20;84.30;;;;;;5093330;28;20192;-71
2020/12/07 05:38:56;;;;;;;76.03;49.97;;;5.20;84.10;;;;;;5093685;28;20218;-71
2020/12/07 05:41:23;;;;;;;91.73;50.80;;;5.20;82.90;;;;;;5093956;28;20258;-71
2020/12/07 05:43:53;;;;;;;84.28;52.30;;;5.20;84.00;;;;;;5093736;28;20192;-71
2020/12/07 05:46:26;;;;;;;74.80;54.25;;;5.20;83.90;;;;;;5093707;28;20192;-71
2020/12/07 05:48:53;;;;;;;80.93;44.25;;;5.30;82.20;;;;;;5092868;28;20164;-71
2020/12/07 05:51:23;;;;;;;93.90;51.88;;;5.30;80.60;;;;;;5093983;28;20168;-71
2020/12/07 05:53:49;;;;;;;89.50;50.38;;;5.30;77.20;;;;;;5093763;28;20172;-71
2020/12/07 05:56:16;;;;;;;78.07;44.65;;;5.40;74.00;;;;;;5093427;28;20200;-71
2020/12/07 05:58:51;;;;;;;73.47;44.30;;;5.40;70.50;;;;;;5093739;28;20629;-71
2020/12/07 06:01:23;;;;;;;84.85;46.03;;;5.40;73.90;;;;;;5093652;28;20676;-71
2020/12/07 06:03:54;;;;;;;87.78;47.78;;;5.40;64.20;;;;;;5094096;28;20173;-71
2020/12/07 06:06:32;;;;;;;99.10;48.95;;;5.50;61.50;;;;;;5093214;28;20188;-71
2020/12/07 06:09:03;;;;;;;77.53;52.20;;;5.50;59.70;;;;;;5093652;28;20226;-71
2020/12/07 06:11:34;;;;;;;105.93;51.97;;;5.50;58.30;;;;;;5093378;28;20189;-71
2020/12/07 06:14:00;;;;;;;92.13;46.17;;;5.40;57.90;;;;;;5093759;28;20183;-71
2020/12/07 06:16:27;;;;;;;103.65;47.10;;;5.30;58.90;;;;;;5092200;28;20543;-71
2020/12/07 06:18:55;;;;;;;102.63;46.05;;;5.20;60.70;;;;;;5093969;28;20172;-71
2020/12/07 06:21:22;;;;;;;78.50;48.13;;;5.30;62.90;;;;;;5092225;28;20686;-71
2020/12/07 06:23:48;;;;;;;93.05;48.53;;;5.20;63.30;;;;;;5093436;28;20168;-71
2020/12/07 06:26:15;;;;;;;106.57;53.10;;;5.20;65.80;;;;;;5093442;28;20184;-71
2020/12/07 06:28:43;;;;;;;83.97;47.85;;;5.20;67.10;;;;;;5093700;28;20780;-71
2020/12/07 06:31:17;;;;;;;100.15;51.15;;;5.20;66.90;;;;;;5093577;28;20177;-71
2020/12/07 06:33:55;;;;;;;88.95;48.47;;;5.20;66.50;;;;;;5093371;28;20180;-71
2020/12/07 06:36:37;;;;;;;98.93;56.15;;;5.30;64.30;;;;;;5092979;28;20196;-71
2020/12/07 06:39:08;;;;;;;97.68;55.75;;;5.30;68.20;;;;;;5093763;28;20265;-71
2020/12/07 06:41:42;;;;;;;90.13;55.15;;;5.20;60.80;;;;;;5093442;28;20345;-71
2020/12/07 06:44:13;;;;;;;97.32;49.42;;;5.30;58.70;;;;;;5093362;28;20602;-71
2020/12/07 06:47:06;;;;;;;104.55;53.58;;;5.20;60.40;;;;;;5093227;28;20224;-71
2020/12/07 06:52:10;;;;;;;78.45;50.50;;;5.20;60.00;;;;;;5096883;28;20184;-71
2020/12/07 06:57:37;;;;;;;90.18;44.08;;;5.20;59.90;;;;;;5097353;28;20198;-71
2020/12/07 07:00:20;;;;;;;83.75;44.20;;;5.20;59.20;;;;;;5096488;28;20271;-71
2020/12/07 07:02:49;;;;;;;81.10;44.13;;;5.20;58.30;;;;;;5096912;28;20168;-71
2020/12/07 07:05:20;;;;;;;88.40;45.78;;;5.20;63.60;;;;;;5096535;28;20677;-71
2020/12/07 07:07:46;;;;;;;74.40;46.80;;;5.20;57.00;;;;;;5096413;28;20168;-71
2020/12/07 07:10:16;;;;;;;74.85;43.83;;;5.30;54.30;;;;;;5096750;28;20183;-71
2020/12/07 07:12:44;;;;;;;77.55;47.00;;;5.20;52.60;;;;;;5096950;28;20184;-71
2020/12/07 07:15:12;;;;;;;93.05;49.22;;;5.30;51.00;;;;;;5096418;28;20528;-71
2020/12/07 07:17:41;;;;;;;77.03;47.03;;;5.30;49.90;;;;;;5096479;28;20670;-71
2020/12/07 07:20:09;;;;;;;79.28;46.85;;;5.30;48.40;;;;;;5096368;28;20656;-71
2020/12/07 07:22:38;;;;;;;68.60;46.58;;;5.40;46.80;;;;;;5096530;28;20225;-71
2020/12/07 07:30:17;;;;;;;66.38;42.20;;;5.20;45.40;;;;;;5096396;28;20184;-71
2020/12/07 07:32:45;;;;;;;64.20;43.42;;;5.10;46.50;;;;;;5096294;28;20169;-70
2020/12/07 07:35:12;;;;;;;73.03;45.20;;;5.10;47.70;;;;;;5095848;28;20265;-71
2020/12/07 07:37:39;;;;;;;66.60;43.58;;;5.10;47.40;;;;;;5095783;28;20183;-71
2020/12/07 07:40:11;;;;;;;67.80;43.95;;;5.20;46.60;;;;;;5094639;28;20192;-70
2020/12/07 07:42:45;;;;;;;72.18;45.85;;;5.30;43.40;;;;;;5096292;28;20171;-70
2020/12/07 07:45:12;;;;;;;63.33;51.85;;;5.30;39.00;;;;;;5095589;28;20184;-70
2020/12/07 07:48:04;;;;;;;66.32;45.30;;;5.20;38.90;;;;;;5096121;28;20199;-70
2020/12/07 08:17:55;;;;;;;36.97;33.15;;;5.00;26.30;;;;;;5095274;28;20194;-70
2020/12/07 08:20:25;;;;;;;35.10;31.35;;;5.00;27.00;;;;;;5095306;28;20721;-70
2020/12/07 08:23:25;;;;;;;33.33;30.38;;;5.00;25.90;;;;;;5095432;28;20160;-70
2020/12/07 08:25:52;;;;;;;27.92;25.63;;;5.00;25.70;;;;;;5094980;28;20190;-70
2020/12/07 08:28:39;;;;;;;36.58;33.42;;;4.90;26.50;;;;;;5094959;28;20176;-70
2020/12/07 08:31:17;;;;;;;35.10;32.38;;;4.90;27.10;;;;;;5095140;28;20176;-70
2020/12/07 08:34:04;;;;;;;34.55;31.95;;;4.80;27.70;;;;;;5094979;28;20563;-70
2020/12/07 08:36:31;;;;;;;30.73;28.30;;;4.80;27.70;;;;;;5094494;28;20206;-70
2020/12/07 08:38:58;;;;;;;27.38;25.27;;;4.80;27.60;;;;;;5094820;28;20180;-70
2020/12/07 08:41:26;;;;;;;20.75;18.95;;;4.80;27.00;;;;;;5094830;28;20196;-70
2020/12/07 08:43:54;;;;;;;22.75;21.05;;;4.80;27.00;;;;;;5094971;28;20548;-70
2020/12/07 08:46:23;;;;;;;26.65;24.92;;;4.80;26.70;;;;;;5094331;28;20185;-70
2020/12/07 08:48:49;;;;;;;28.77;26.42;;;4.80;26.10;;;;;;5095129;28;20502;-70
2020/12/07 08:51:19;;;;;;;33.20;31.50;;;4.80;25.30;;;;;;5094549;28;20168;-70
2020/12/07 08:53:44;;;;;;;26.40;24.90;;;4.80;23.90;;;;;;5094940;28;20172;-70
2020/12/07 08:56:10;;;;;;;24.33;23.00;;;4.80;22.90;;;;;;5094462;28;20188;-70
2020/12/07 08:58:37;;;;;;;22.40;20.80;;;4.70;22.10;;;;;;5094518;28;20259;-70
2020/12/07 09:01:05;;;;;;;24.63;23.13;;;4.60;22.00;;;;;;5094800;28;20215;-70
2020/12/07 09:03:31;;;;;;;26.85;25.15;;;4.50;24.30;;;;;;5094681;28;20165;-70
2020/12/07 09:05:56;;;;;;;24.75;23.23;;;4.60;24.70;;;;;;5094254;28;20268;-70
2020/12/07 09:08:22;;;;;;;22.70;21.33;;;4.60;26.20;;;;;;5094423;28;20314;-70
2020/12/07 09:10:48;;;;;;;22.13;20.47;;;4.70;26.40;;;;;;5094747;28;20169;-69
2020/12/07 09:13:13;;;;;;;27.10;25.57;;;4.60;26.00;;;;;;5093895;28;20179;-70
2020/12/07 09:15:39;;;;;;;27.50;26.20;;;4.60;24.20;;;;;;5093844;28;20445;-70
2020/12/07 09:18:05;;;;;;;24.70;23.33;;;4.60;23.50;;;;;;5094045;28;20175;-69
2020/12/07 09:20:30;;;;;;;23.33;21.93;;;4.50;23.10;;;;;;5094243;28;20242;-69
2020/12/07 09:22:56;;;;;;;19.83;18.77;;;4.60;22.80;;;;;;5094201;28;20213;-69
2020/12/07 09:25:21;;;;;;;19.97;18.67;;;4.60;22.40;;;;;;5093734;28;20184;-70
2020/12/07 09:27:47;;;;;;;29.07;27.60;;;4.70;21.10;;;;;;5094353;28;20170;-69
2020/12/07 09:30:13;;;;;;;24.53;23.07;;;4.50;20.60;;;;;;5093956;28;20172;-69
2020/12/07 09:32:38;;;;;;;21.80;20.40;;;4.60;21.00;;;;;;5093978;28;20251;-70
2020/12/07 09:35:06;;;;;;;26.93;25.60;;;4.70;21.30;;;;;;5093538;28;20204;-70
2020/12/07 09:37:32;;;;;;;26.80;25.50;;;4.70;21.80;;;;;;5093998;28;20247;-70
2020/12/07 09:39:57;;;;;;;31.07;29.37;;;4.70;21.40;;;;;;5094231;28;20284;-70
2020/12/07 09:42:23;;;;;;;26.53;24.93;;;4.80;19.60;;;;;;5093802;28;20176;-69
2020/12/07 09:44:48;;;;;;;29.13;27.53;;;4.60;20.10;;;;;;5093992;28;20183;-71
2020/12/07 09:47:14;;;;;;;32.70;30.77;;;4.50;20.80;;;;;;5094114;28;20156;-70
2020/12/07 09:49:39;;;;;;;28.57;26.87;;;4.60;21.30;;;;;;5093831;28;20689;-70
2020/12/07 09:52:06;;;;;;;26.97;25.30;;;4.60;21.40;;;;;;5093856;28;20176;-69
2020/12/07 09:54:36;;;;;;;32.53;30.40;;;4.60;21.70;;;;;;5094002;28;20172;-70
2020/12/07 09:57:03;;;;;;;31.83;29.92;;;4.40;22.10;;;;;;5094003;28;20179;-70
2020/12/07 09:59:28;;;;;;;30.92;28.92;;;4.50;23.00;;;;;;5094136;28;20172;-70
2020/12/07 10:01:54;;;;;;;30.70;28.80;;;4.60;23.10;;;;;;5093550;28;20194;-70
2020/12/07 10:04:19;;;;;;;28.90;27.00;;;4.60;21.30;;;;;;5093740;28;20165;-70
2020/12/07 10:06:45;;;;;;;26.60;24.80;;;4.60;20.80;;;;;;5093509;28;20188;-70
2020/12/07 10:09:10;;;;;;;26.17;24.20;;;4.60;19.00;;;;;;5087048;28;20180;-70
2020/12/07 10:11:36;;;;;;;23.83;22.07;;;4.60;17.90;;;;;;5084133;28;20176;-70
2020/12/07 10:14:01;;;;;;;28.33;26.63;;;4.70;16.10;;;;;;5092947;28;20201;-70
2020/12/07 10:16:27;;;;;;;34.83;32.67;;;4.60;16.10;;;;;;5092428;28;20192;-70
2020/12/07 10:18:53;;;;;;;33.17;30.93;;;4.60;17.00;;;;;;5092665;28;20168;-70
2020/12/07 10:21:24;;;;;;;30.53;28.73;;;4.60;16.30;;;;;;5092769;28;20201;-70
2020/12/07 10:23:49;;;;;;;32.88;30.58;;;4.60;15.10;;;;;;5094518;28;20214;-70
2020/12/07 10:26:15;;;;;;;31.50;29.00;;;4.70;12.50;;;;;;5096461;28;20188;-70
2020/12/07 10:28:41;;;;;;;37.67;34.63;;;4.70;10.30;;;;;;5078413;28;20177;-70
2020/12/07 10:31:06;;;;;;;34.87;32.77;;;4.70;8.70;;;;;;5074433;28;20177;-70
2020/12/07 10:33:32;;;;;;;33.50;31.17;;;4.70;8.20;;;;;;5073842;28;20180;-70
2020/12/07 10:35:57;;;;;;;34.03;31.73;;;4.80;7.00;;;;;;5073811;28;20192;-70
2020/12/07 10:38:23;;;;;;;38.47;35.77;;;4.70;5.00;;;;;;5074103;28;20201;-70
2020/12/07 10:40:48;;;;;;;29.27;27.07;;;4.70;4.70;;;;;;5074168;28;20647;-70
2020/12/07 10:43:14;;;;;;;29.47;27.33;;;4.80;3.20;;;;;;5074015;28;20185;-70
2020/12/07 10:45:39;;;;;;;33.20;30.80;;;4.70;2.00;;;;;;5073771;28;20266;-70
2020/12/07 10:48:05;;;;;;;30.03;28.00;;;4.80;1.90;;;;;;5075356;28;20178;-70
2020/12/07 10:50:31;;;;;;;34.73;32.13;;;4.80;1.00;;;;;;5080679;28;20181;-70
2020/12/07 10:52:56;;;;;;;35.83;33.13;;;5.00;1.00;;;;;;5074036;28;20177;-70
2020/12/07 10:55:22;;;;;;;36.80;34.20;;;5.00;1.00;;;;;;5073868;28;20224;-70
2020/12/07 10:57:47;;;;;;;34.33;31.10;;;5.00;1.00;;;;;;5073843;28;20515;-70
2020/12/07 11:00:13;;;;;;;38.30;35.37;;;5.00;1.00;;;;;;5073869;28;20315;-70
2020/12/07 11:02:38;;;;;;;41.60;38.10;;;5.00;1.00;;;;;;5073784;28;20212;-70
2020/12/07 11:05:04;;;;;;;35.57;32.97;;;5.00;1.00;;;;;;5087804;28;20212;-70
2020/12/07 11:07:30;;;;;;;35.90;32.17;;;5.00;1.00;;;;;;5093888;28;20206;-70
2020/12/07 11:09:56;;;;;;;33.78;30.67;;;5.00;1.00;;;;;;5093859;28;20169;-70
2020/12/07 11:12:23;;;;;;;35.07;31.77;;;4.90;1.00;;;;;;5093799;28;20229;-70
2020/12/07 11:14:49;;;;;;;38.03;34.70;;;4.90;1.00;;;;;;5074205;28;20181;-71
2020/12/07 11:17:15;;;;;;;32.43;29.63;;;4.90;1.00;;;;;;5073320;28;20243;-70
2020/12/07 11:19:44;;;;;;;34.40;30.83;;;4.90;10.60;;;;;;5073498;28;20219;-70
2020/12/07 11:22:12;;;;;;;38.00;34.15;;;5.00;8.50;;;;;;5073455;28;20165;-70
2020/12/07 11:24:39;;;;;;;33.17;29.90;;;5.00;7.50;;;;;;5073205;28;20177;-70
2020/12/07 11:27:05;;;;;;;39.30;35.20;;;5.00;8.30;;;;;;5073002;28;20687;-70
2020/12/07 11:29:32;;;;;;;39.42;35.72;;;5.00;7.00;;;;;;5073327;28;20257;-70
2020/12/07 11:31:57;;;;;;;39.03;35.03;;;5.10;3.10;;;;;;5073048;28;20196;-70
2020/12/07 11:34:23;;;;;;;44.97;41.67;;;5.20;1.00;;;;;;5071860;28;20227;-70
2020/12/07 11:36:50;;;;;;;48.03;44.20;;;5.20;1.00;;;;;;5072644;28;20192;-70
2020/12/07 11:42:02;;;;;;;39.25;35.35;;;5.20;1.00;;;;;;5072947;28;20197;-70
2020/12/07 11:44:28;;;;;;;40.55;36.17;;;5.20;1.00;;;;;;5073203;28;20712;-70
2020/12/07 11:46:57;;;;;;;40.53;34.90;;;5.20;1.00;;;;;;5073147;28;20189;-71
2020/12/07 11:49:23;;;;;;;66.60;50.75;;;5.20;1.00;;;;;;5072855;28;20165;-70
2020/12/07 11:51:49;;;;;;;41.47;37.20;;;5.20;1.00;;;;;;5073087;28;20673;-70
2020/12/07 11:54:14;;;;;;;40.10;35.57;;;5.10;1.00;;;;;;5073064;28;20634;-71
2020/12/07 11:56:40;;;;;;;43.77;39.20;;;5.20;1.00;;;;;;5072485;28;20427;-70
2020/12/07 11:59:08;;;;;;;44.37;39.47;;;5.20;1.00;;;;;;5072573;28;20204;-70
2020/12/07 12:01:34;;;;;;;45.63;37.70;;;5.20;1.00;;;;;;5072733;28;20242;-71
2020/12/07 12:04:00;;;;;;;44.67;39.53;;;5.20;1.00;;;;;;5077917;28;20169;-70
2020/12/07 12:06:31;;;;;;;48.83;43.78;;;5.20;1.00;;;;;;5091336;28;20585;-70
2020/12/07 12:08:58;;;;;;;48.40;39.17;;;5.20;1.00;;;;;;5092820;28;20168;-70
2020/12/07 12:11:29;;;;;;;45.60;36.45;;;5.20;1.00;;;;;;5092718;28;20648;-70
2020/12/07 12:13:55;;;;;;;53.45;46.72;;;5.30;1.00;;;;;;5093010;28;20564;-70
2020/12/07 12:16:21;;;;;;;51.25;40.85;;;5.30;1.00;;;;;;5092582;28;20195;-70
2020/12/07 12:18:46;;;;;;;49.87;44.83;;;5.40;1.00;;;;;;5092630;28;20176;-70
2020/12/07 12:21:12;;;;;;;52.63;45.70;;;5.30;1.00;;;;;;5092449;28;20582;-70
2020/12/07 12:23:38;;;;;;;58.07;51.30;;;5.40;1.00;;;;;;5092551;28;20529;-70
2020/12/07 12:26:04;;;;;;;47.05;40.78;;;5.40;1.00;;;;;;5092332;28;20611;-70
2020/12/07 12:28:29;;;;;;;50.60;43.73;;;5.40;1.00;;;;;;5092347;28;20172;-70
2020/12/07 12:30:56;;;;;;;59.93;45.73;;;5.40;1.00;;;;;;5090889;28;20690;-70
2020/12/07 12:33:22;;;;;;;51.25;45.25;;;5.40;1.00;;;;;;5092225;28;20208;-70
2020/12/07 12:35:48;;;;;;;51.00;40.30;;;5.40;1.00;;;;;;5091918;28;20231;-70
2020/12/07 12:38:13;;;;;;;52.43;45.80;;;5.50;1.00;;;;;;5092345;28;20418;-70
2020/12/07 12:40:39;;;;;;;50.33;42.63;;;5.50;1.00;;;;;;5091969;28;20224;-70
2020/12/07 12:43:05;;;;;;;47.28;41.85;;;5.50;1.00;;;;;;5090924;28;20215;-70
2020/12/07 12:45:31;;;;;;;53.53;41.67;;;5.50;1.00;;;;;;5091873;28;20658;-70
2020/12/07 12:47:56;;;;;;;56.87;43.87;;;5.60;1.00;;;;;;5091925;28;20173;-70
2020/12/07 12:50:22;;;;;;;51.77;46.37;;;5.50;1.00;;;;;;5091620;28;20200;-70
2020/12/07 12:52:47;;;;;;;49.43;43.67;;;5.60;1.00;;;;;;5091941;28;20173;-70
2020/12/07 12:55:13;;;;;;;55.60;49.67;;;5.70;1.00;;;;;;5091660;28;20196;-70
2020/12/07 12:57:39;;;;;;;50.57;45.20;;;5.70;1.00;;;;;;5091485;28;20662;-70
2020/12/07 13:00:05;;;;;;;49.73;44.43;;;5.80;1.00;;;;;;5091652;28;20253;-70
2020/12/07 13:02:31;;;;;;;51.22;43.53;;;5.80;1.00;;;;;;5091820;28;20549;-70
2020/12/07 13:04:57;;;;;;;51.10;45.90;;;5.80;1.00;;;;;;5091444;28;20201;-70
2020/12/07 13:07:23;;;;;;;45.07;40.50;;;5.80;1.00;;;;;;5091466;28;20169;-70
2020/12/07 13:09:48;;;;;;;46.87;41.87;;;5.80;1.00;;;;;;5091636;28;20169;-70
2020/12/07 13:12:14;;;;;;;41.83;37.30;;;5.90;1.00;;;;;;5091613;28;20176;-70
2020/12/07 13:14:39;;;;;;;47.90;43.10;;;5.90;1.00;;;;;;5091496;28;20179;-70
2020/12/07 13:17:07;;;;;;;48.40;43.97;;;5.90;1.00;;;;;;5091147;28;20194;-70
2020/12/07 13:19:33;;;;;;;50.45;45.45;;;5.90;1.00;;;;;;5075545;28;20264;-70